Zanesville Municipal (ZZV)

 

Airport Diagram
No Airport Diagram Available
Current Weather/Forecast (VFR Conditions)
METAR KZZV 252353Z AUTO 05008KT 9SM OVC050 01/M01 A2985 RMK AO2 RAB24E37UPB37E43 SLP116 P0000 60002 I6000 T00061006 10011 21006 56020
TAF KZZV 252321Z 2600/2624 05008KT P6SM OVC070 FM260500 06004KT 3SM -RA BR OVC005 FM261100 00000KT 5SM BR OVC004 FM261700 24007KT P6SM BKN010

Airport Information

All Charts
General
Chart Name View
TAKEOFF MINIMUMS
ALTERNATE MINIMUMS
TAKEOFF MINIMUMS
ALTERNATE MINIMUMS

Approaches
Chart Name Download
ILS OR LOC RWY 22
RNAV (GPS) RWY 04
RNAV (GPS) RWY 22
VOR RWY 04
VOR RWY 22
ILS OR LOC RWY 22
RNAV (GPS) RWY 04
RNAV (GPS) RWY 22
VOR RWY 04
VOR RWY 22


Airport Statistics
Departures Arrivals Local
All Collected Stats since June 2016: 15 13 0
2021 Stats: 0 0 0
January Stats: 0 0 0

Inbound Traffic (Arrivals) - 0

No inbound traffic.


Outbound Traffic (Departures) - 0

No outbound traffic.


Local Traffic (Pattern) - 0

No local traffic.